createdAt,value
2018-05-01T00:01:34.281Z,99.90
2018-05-01T00:04:02.781Z,99.90
2018-05-01T00:06:31.104Z,99.90
2018-05-01T00:08:59.701Z,99.90
2018-05-01T00:11:28.866Z,99.90
2018-05-01T00:13:58.154Z,99.90
2018-05-01T00:16:27.396Z,99.90
2018-05-01T00:18:55.815Z,99.90
2018-05-01T00:21:24.131Z,99.90
2018-05-01T00:23:52.639Z,99.90
2018-05-01T00:26:21.158Z,99.90
2018-05-01T00:28:49.650Z,99.90
2018-05-01T00:31:18.655Z,99.90
2018-05-01T00:33:47.707Z,99.90
2018-05-01T00:36:16.269Z,99.90
2018-05-01T00:38:44.647Z,99.90
2018-05-01T00:41:12.964Z,99.90
2018-05-01T00:43:41.322Z,99.90
2018-05-01T00:46:09.725Z,99.90
2018-05-01T00:48:38.883Z,99.90
2018-05-01T00:51:07.367Z,99.90
2018-05-01T00:53:35.764Z,99.90
2018-05-01T00:56:04.160Z,99.90
2018-05-01T00:58:32.605Z,99.90
2018-05-01T01:01:01.384Z,99.90
2018-05-01T01:03:29.868Z,99.90
2018-05-01T01:05:58.357Z,99.90
2018-05-01T01:08:26.764Z,99.90
2018-05-01T01:10:55.054Z,99.90
2018-05-01T01:13:23.463Z,99.90
2018-05-01T01:15:51.776Z,99.90
2018-05-01T01:18:20.237Z,99.90
2018-05-01T01:20:48.825Z,99.90
2018-05-01T01:23:17.402Z,99.90
2018-05-01T01:25:45.830Z,99.90
2018-05-01T01:28:14.173Z,99.90
2018-05-01T01:30:45.850Z,99.90
2018-05-01T01:33:14.347Z,99.90
2018-05-01T01:35:42.153Z,99.90
2018-05-01T01:38:10.133Z,99.90
2018-05-01T01:40:38.008Z,99.90
2018-05-01T01:43:05.899Z,99.90
2018-05-01T01:45:33.730Z,99.90
2018-05-01T01:48:01.551Z,99.90
2018-05-01T01:50:29.467Z,99.90
2018-05-01T01:52:57.285Z,99.90
2018-05-01T01:55:25.219Z,99.90
2018-05-01T01:57:53.066Z,99.90
2018-05-01T02:00:21.033Z,99.90
2018-05-01T02:02:48.946Z,99.90
2018-05-01T02:05:16.772Z,99.90
2018-05-01T02:07:44.736Z,99.90
2018-05-01T02:10:12.578Z,99.90
2018-05-01T02:12:40.673Z,99.90
2018-05-01T02:15:08.497Z,99.90
2018-05-01T02:17:37.131Z,99.90
2018-05-01T02:20:05.076Z,99.90
2018-05-01T02:22:32.999Z,99.90
2018-05-01T02:25:00.929Z,99.90
2018-05-01T02:27:29.032Z,99.90
2018-05-01T02:29:57.169Z,99.90
2018-05-01T02:32:25.139Z,99.90
2018-05-01T02:34:53.834Z,99.90
2018-05-01T02:37:21.795Z,99.90
2018-05-01T02:39:49.666Z,99.90
2018-05-01T02:42:17.631Z,99.90
2018-05-01T02:44:45.499Z,99.90
2018-05-01T02:47:13.490Z,99.90
2018-05-01T02:49:41.281Z,99.90
2018-05-01T02:52:09.213Z,99.90
2018-05-01T02:54:37.173Z,99.90
2018-05-01T02:57:05.137Z,99.90
2018-05-01T02:59:33.058Z,99.90
2018-05-01T03:02:01.032Z,99.90
2018-05-01T03:04:29.043Z,99.90
2018-05-01T03:06:57.028Z,99.90
2018-05-01T03:09:24.980Z,99.90
2018-05-01T03:11:52.852Z,99.90
2018-05-01T03:14:20.817Z,99.90
2018-05-01T03:16:48.660Z,99.90
2018-05-01T03:19:17.371Z,99.90
2018-05-01T03:21:45.292Z,99.90
2018-05-01T03:24:13.897Z,99.90
2018-05-01T03:26:42.445Z,99.90
2018-05-01T03:29:10.370Z,99.90
2018-05-01T03:31:38.339Z,99.90
2018-05-01T03:34:06.336Z,99.90
2018-05-01T03:36:34.276Z,99.90
2018-05-01T03:39:02.443Z,99.90
2018-05-01T03:41:30.355Z,99.90
2018-05-01T03:43:58.284Z,99.90
2018-05-01T03:46:26.252Z,99.90
2018-05-01T03:48:54.167Z,99.90
2018-05-01T03:51:23.764Z,99.90
2018-05-01T03:53:51.560Z,99.90
2018-05-01T03:56:20.109Z,99.90
2018-05-01T03:58:48.148Z,99.90
2018-05-01T04:01:15.965Z,99.90
2018-05-01T04:03:43.789Z,99.90
2018-05-01T04:06:11.739Z,99.90
2018-05-01T04:08:40.634Z,99.90
2018-05-01T04:11:08.685Z,99.90
2018-05-01T04:13:38.093Z,99.90
2018-05-01T04:16:05.975Z,99.90
2018-05-01T04:18:33.947Z,99.90
2018-05-01T04:21:01.734Z,99.90
2018-05-01T04:23:29.646Z,99.90
2018-05-01T04:25:58.368Z,99.90
2018-05-01T04:28:26.267Z,99.90
2018-05-01T04:30:54.718Z,99.90
2018-05-01T04:33:22.779Z,99.90
2018-05-01T04:35:50.578Z,99.90
2018-05-01T04:38:18.417Z,99.90
2018-05-01T04:40:46.379Z,99.90
2018-05-01T04:43:14.304Z,99.90
2018-05-01T04:45:42.326Z,99.90
2018-05-01T04:48:10.329Z,99.90
2018-05-01T04:50:38.260Z,99.90
2018-05-01T04:53:06.180Z,99.90
2018-05-01T04:55:34.910Z,99.90
2018-05-01T04:58:02.877Z,99.90
2018-05-01T05:00:30.659Z,99.90
2018-05-01T05:02:58.560Z,99.90
2018-05-01T05:05:26.483Z,99.90
2018-05-01T05:07:54.450Z,99.90
2018-05-01T05:10:22.334Z,99.90
2018-05-01T05:12:50.401Z,99.90
2018-05-01T05:15:18.278Z,99.90
2018-05-01T05:17:46.220Z,99.90
2018-05-01T05:20:14.096Z,99.90
2018-05-01T05:22:42.008Z,99.90
2018-05-01T05:25:09.846Z,99.90
2018-05-01T05:27:37.909Z,99.90
2018-05-01T05:30:06.166Z,99.90
2018-05-01T05:32:34.135Z,99.90
2018-05-01T05:35:02.045Z,99.90
2018-05-01T05:37:29.896Z,99.90
2018-05-01T05:39:58.050Z,99.90
2018-05-01T05:42:26.013Z,99.90
2018-05-01T05:44:54.287Z,99.90
2018-05-01T05:47:22.265Z,99.90
2018-05-01T05:49:50.166Z,99.90
2018-05-01T05:52:18.203Z,99.90
2018-05-01T05:54:46.165Z,99.90
2018-05-01T05:57:14.096Z,99.90
2018-05-01T05:59:42.727Z,99.90
2018-05-01T06:02:10.686Z,99.90
2018-05-01T06:04:38.684Z,99.90
2018-05-01T06:07:06.625Z,99.90
2018-05-01T06:09:34.445Z,99.90
2018-05-01T06:12:02.669Z,99.90
2018-05-01T06:14:30.759Z,99.90
2018-05-01T06:16:58.645Z,99.90
2018-05-01T06:19:27.339Z,99.90
2018-05-01T06:21:55.346Z,99.90
2018-05-01T06:24:23.880Z,99.90
2018-05-01T06:26:53.295Z,99.90
2018-05-01T06:29:21.158Z,99.90
2018-05-01T06:31:49.081Z,99.90
2018-05-01T06:34:17.047Z,99.90
2018-05-01T06:36:44.858Z,99.90
2018-05-01T06:39:12.763Z,99.90
2018-05-01T06:41:40.968Z,99.90
2018-05-01T06:44:08.917Z,99.90
2018-05-01T06:46:36.751Z,99.90
2018-05-01T06:49:05.426Z,99.90
2018-05-01T06:51:33.349Z,99.90
2018-05-01T06:54:01.763Z,99.90
2018-05-01T06:56:30.758Z,99.90
2018-05-01T06:58:58.680Z,99.90
2018-05-01T07:01:26.490Z,99.90
2018-05-01T07:03:55.438Z,99.90
2018-05-01T07:06:23.311Z,99.90
2018-05-01T07:08:51.102Z,99.90
2018-05-01T07:11:19.041Z,99.90
2018-05-01T07:13:46.839Z,99.90
2018-05-01T07:16:14.718Z,99.90
2018-05-01T07:18:43.459Z,99.90
2018-05-01T07:21:11.472Z,99.90
2018-05-01T07:23:39.431Z,99.90
2018-05-01T07:26:08.775Z,99.90
2018-05-01T07:28:36.735Z,99.90
2018-05-01T07:31:05.495Z,99.90
2018-05-01T07:33:34.082Z,99.90
2018-05-01T07:36:01.943Z,99.90
2018-05-01T07:38:29.762Z,99.90
2018-05-01T07:40:58.095Z,99.90
2018-05-01T07:43:26.117Z,99.90
2018-05-01T07:45:54.003Z,99.90
2018-05-01T07:48:21.903Z,99.90
2018-05-01T07:50:51.559Z,99.90
2018-05-01T07:53:19.502Z,99.90
2018-05-01T07:55:47.494Z,99.90
2018-05-01T07:58:15.939Z,99.90
2018-05-01T08:00:43.837Z,99.90
2018-05-01T08:03:11.618Z,99.90
2018-05-01T08:05:39.679Z,99.90
2018-05-01T08:08:07.643Z,99.90
2018-05-01T08:10:35.607Z,99.90
2018-05-01T08:13:03.583Z,99.90
2018-05-01T08:15:31.544Z,99.90
2018-05-01T08:17:59.609Z,99.90
2018-05-01T08:20:27.694Z,99.90
2018-05-01T08:22:55.664Z,99.90
2018-05-01T08:25:23.626Z,99.90
2018-05-01T08:27:51.494Z,99.90
2018-05-01T08:30:19.301Z,99.90
2018-05-01T08:32:48.773Z,99.90
2018-05-01T08:35:16.938Z,99.90
2018-05-01T08:37:45.046Z,99.90
2018-05-01T08:40:15.255Z,99.90
2018-05-01T08:42:43.207Z,99.90
2018-05-01T08:45:11.317Z,99.90
2018-05-01T08:47:39.370Z,99.90
2018-05-01T08:50:07.594Z,99.90
2018-05-01T08:52:37.293Z,99.90
2018-05-01T08:55:07.136Z,99.90
2018-05-01T08:57:35.320Z,99.90
2018-05-01T09:00:04.025Z,99.90
2018-05-01T09:02:32.784Z,99.90
2018-05-01T09:05:01.178Z,99.90
2018-05-01T09:07:29.256Z,99.90
2018-05-01T09:09:58.827Z,99.90
2018-05-01T09:12:26.917Z,99.90
2018-05-01T09:14:57.048Z,99.90
2018-05-01T09:17:25.389Z,99.90
2018-05-01T09:19:55.161Z,99.90
2018-05-01T10:06:08.036Z,99.90
2018-05-01T10:08:39.160Z,99.90
2018-05-01T10:11:07.826Z,99.90
2018-05-01T10:13:37.322Z,99.90
2018-05-01T10:16:07.718Z,99.90
2018-05-01T10:18:36.180Z,99.90
2018-05-01T10:21:05.052Z,99.90
2018-05-01T10:23:35.110Z,99.90
2018-05-01T10:26:07.746Z,99.90
2018-05-01T10:28:40.956Z,99.90
2018-05-01T10:31:14.491Z,99.90
2018-05-01T10:33:47.337Z,99.90
2018-05-01T10:36:17.148Z,99.90
2018-05-01T10:38:45.904Z,99.90
2018-05-01T10:41:15.501Z,99.90
2018-05-01T10:43:44.030Z,99.90
2018-05-01T10:46:12.867Z,99.90
2018-05-01T10:48:41.802Z,99.90
2018-05-01T10:51:11.977Z,99.90
2018-05-01T10:53:40.557Z,99.90
2018-05-01T10:56:09.878Z,99.90
2018-05-01T10:58:38.702Z,99.90
2018-05-01T11:01:08.265Z,99.90
2018-05-01T11:03:36.859Z,99.90
2018-05-01T11:06:05.372Z,99.90
2018-05-01T11:08:33.913Z,99.90
2018-05-01T11:11:03.364Z,99.90
2018-05-01T11:13:32.187Z,99.90
2018-05-01T11:16:02.267Z,99.90
2018-05-01T11:18:30.915Z,99.90
2018-05-01T11:21:01.518Z,99.90
2018-05-01T11:23:30.994Z,99.90
2018-05-01T11:25:59.520Z,99.90
2018-05-01T11:28:28.872Z,99.90
2018-05-01T11:30:57.749Z,99.90
2018-05-01T11:33:26.868Z,99.90
2018-05-01T11:35:57.093Z,99.90
2018-05-01T11:38:25.857Z,99.90
2018-05-01T11:40:54.436Z,99.90
2018-05-01T11:43:23.059Z,99.90
2018-05-01T11:45:52.812Z,99.90
2018-05-01T11:48:22.238Z,99.90
2018-05-01T11:50:50.921Z,99.90
2018-05-01T11:53:19.628Z,99.90
2018-05-01T11:55:48.515Z,99.90
2018-05-01T11:58:16.945Z,99.90
2018-05-01T12:00:47.526Z,99.90
2018-05-01T12:03:16.309Z,99.90
2018-05-01T12:05:45.185Z,99.90
2018-05-01T12:08:13.725Z,99.90
2018-05-01T12:10:43.172Z,99.90
2018-05-01T12:13:11.818Z,99.90
2018-05-01T12:15:41.015Z,99.90
2018-05-01T12:18:10.258Z,99.90
2018-05-01T12:20:38.850Z,99.90
2018-05-01T12:23:07.356Z,99.90
2018-05-01T12:25:37.209Z,99.90
2018-05-01T12:28:05.820Z,99.90
2018-05-01T12:30:35.430Z,99.90
2018-05-01T12:33:04.113Z,99.90
2018-05-01T12:35:32.696Z,99.90
2018-05-01T12:38:01.481Z,99.90
2018-05-01T12:40:31.126Z,99.90
2018-05-01T12:43:00.057Z,99.90
2018-05-01T12:45:28.661Z,99.90
2018-05-01T12:47:57.271Z,99.90
2018-05-01T12:50:26.872Z,99.90
2018-05-01T12:52:55.611Z,99.90
2018-05-01T12:55:25.220Z,99.90
2018-05-01T12:57:54.117Z,99.90
2018-05-01T13:00:22.749Z,99.90
2018-05-01T13:02:51.416Z,99.80
2018-05-01T13:05:20.089Z,99.90
2018-05-01T13:07:48.709Z,98.30
2018-05-01T13:10:18.262Z,96.70
2018-05-01T13:12:47.180Z,96.60
2018-05-01T13:15:16.410Z,97.40
2018-05-01T13:17:46.398Z,99.90
2018-05-01T13:20:15.033Z,99.90
2018-05-01T13:22:44.480Z,99.90
2018-05-01T13:25:14.086Z,99.90
2018-05-01T13:27:42.730Z,99.90
2018-05-01T13:30:11.558Z,99.90
2018-05-01T13:32:40.139Z,99.90
2018-05-01T13:35:09.881Z,99.90
2018-05-01T13:37:39.879Z,99.90
2018-05-01T13:40:09.443Z,99.90
2018-05-01T13:42:39.930Z,99.90
2018-05-01T13:45:09.935Z,99.90
2018-05-01T13:47:38.465Z,99.90
2018-05-01T13:50:08.190Z,99.90
2018-05-01T13:52:37.181Z,99.90
2018-05-01T13:55:05.744Z,99.90
2018-05-01T13:57:36.235Z,99.90
2018-05-01T14:00:04.813Z,99.90
2018-05-01T14:02:33.342Z,99.90
2018-05-01T14:05:02.386Z,99.90
2018-05-01T14:07:30.957Z,99.90
2018-05-01T14:09:59.641Z,99.90
2018-05-01T14:12:28.239Z,99.90
2018-05-01T14:14:57.135Z,99.90
2018-05-01T14:17:26.683Z,99.90
2018-05-01T14:19:56.427Z,99.90
2018-05-01T14:22:26.122Z,99.90
2018-05-01T14:24:54.909Z,99.90
2018-05-01T14:27:23.833Z,99.90
2018-05-01T14:29:54.457Z,99.90
2018-05-01T14:32:23.801Z,99.90
2018-05-01T14:34:52.496Z,99.90
2018-05-01T14:37:22.140Z,99.90
2018-05-01T14:39:51.563Z,98.50
2018-05-01T14:42:21.399Z,96.40
2018-05-01T14:44:50.692Z,96.40
2018-05-01T14:47:20.314Z,96.20
2018-05-01T14:49:49.399Z,95.00
2018-05-01T14:52:18.467Z,93.90
2018-05-01T14:54:47.477Z,93.50
2018-05-01T14:57:17.070Z,93.40
2018-05-01T14:59:46.417Z,92.50
2018-05-01T15:02:15.632Z,94.40
2018-05-01T15:04:47.284Z,93.60
2018-05-01T15:07:17.947Z,92.80
2018-05-01T15:09:47.761Z,92.80
2018-05-01T15:12:18.059Z,94.50
2018-05-01T15:14:47.157Z,94.10
2018-05-01T15:17:16.276Z,93.40
